sensor_id;sensor_type;location;lat;lon;timestamp;temperature;humidity
16578;DHT22;8401;52.528;13.340;2022-07-29T00:01:56;18.00;99.90
16578;DHT22;8401;52.528;13.340;2022-07-29T00:04:21;18.10;99.90
16578;DHT22;8401;52.528;13.340;2022-07-29T00:06:47;18.10;99.90
16578;DHT22;8401;52.528;13.340;2022-07-29T00:09:13;17.90;99.90
16578;DHT22;8401;52.528;13.340;2022-07-29T00:11:38;17.90;99.90
16578;DHT22;8401;52.528;13.340;2022-07-29T00:14:04;17.90;99.90
16578;DHT22;8401;52.528;13.340;2022-07-29T00:16:30;17.90;99.90
16578;DHT22;8401;52.528;13.340;2022-07-29T00:18:55;17.80;99.90
16578;DHT22;8401;52.528;13.340;2022-07-29T00:21:21;18.00;99.90
16578;DHT22;8401;52.528;13.340;2022-07-29T00:23:46;17.90;99.90
16578;DHT22;8401;52.528;13.340;2022-07-29T00:26:12;17.90;99.90
16578;DHT22;8401;52.528;13.340;2022-07-29T00:28:37;17.80;99.90
16578;DHT22;8401;52.528;13.340;2022-07-29T00:31:03;17.70;99.90
16578;DHT22;8401;52.528;13.340;2022-07-29T00:33:29;17.60;99.90
16578;DHT22;8401;52.528;13.340;2022-07-29T00:35:54;17.70;99.90
16578;DHT22;8401;52.528;13.340;2022-07-29T00:38:20;17.80;99.90
16578;DHT22;8401;52.528;13.340;2022-07-29T00:40:46;17.80;99.90
16578;DHT22;8401;52.528;13.340;2022-07-29T00:43:13;17.70;99.90
16578;DHT22;8401;52.528;13.340;2022-07-29T00:45:39;17.80;99.90
16578;DHT22;8401;52.528;13.340;2022-07-29T00:48:05;17.70;99.90
16578;DHT22;8401;52.528;13.340;2022-07-29T00:50:32;17.70;99.90
16578;DHT22;8401;52.528;13.340;2022-07-29T00:52:58;17.60;99.90
16578;DHT22;8401;52.528;13.340;2022-07-29T00:55:24;17.40;99.90
16578;DHT22;8401;52.528;13.340;2022-07-29T00:57:50;17.50;99.90
16578;DHT22;8401;52.528;13.340;2022-07-29T01:00:20;17.40;99.90
16578;DHT22;8401;52.528;13.340;2022-07-29T01:02:47;17.50;99.90
16578;DHT22;8401;52.528;13.340;2022-07-29T01:05:21;17.30;99.90
16578;DHT22;8401;52.528;13.340;2022-07-29T01:07:49;17.30;99.90
16578;DHT22;8401;52.528;13.340;2022-07-29T01:10:16;17.30;99.90
16578;DHT22;8401;52.528;13.340;2022-07-29T01:12:44;17.20;99.90
16578;DHT22;8401;52.528;13.340;2022-07-29T01:15:10;17.20;99.90
16578;DHT22;8401;52.528;13.340;2022-07-29T01:17:57;17.30;99.90
16578;DHT22;8401;52.528;13.340;2022-07-29T01:26:17;17.10;99.90
16578;DHT22;8401;52.528;13.340;2022-07-29T01:29:11;17.00;99.90
16578;DHT22;8401;52.528;13.340;2022-07-29T01:32:05;17.20;99.90
16578;DHT22;8401;52.528;13.340;2022-07-29T01:35:02;17.00;99.90
16578;DHT22;8401;52.528;13.340;2022-07-29T01:40:02;16.90;99.90
16578;DHT22;8401;52.528;13.340;2022-07-29T01:42:55;16.90;99.90
16578;DHT22;8401;52.528;13.340;2022-07-29T01:45:38;16.90;99.90
16578;DHT22;8401;52.528;13.340;2022-07-29T01:48:34;16.80;99.90
16578;DHT22;8401;52.528;13.340;2022-07-29T01:51:05;16.80;99.90
16578;DHT22;8401;52.528;13.340;2022-07-29T01:53:35;16.70;99.90
16578;DHT22;8401;52.528;13.340;2022-07-29T01:56:02;16.70;99.90
16578;DHT22;8401;52.528;13.340;2022-07-29T01:58:29;16.70;99.90
16578;DHT22;8401;52.528;13.340;2022-07-29T02:00:57;16.70;99.90
16578;DHT22;8401;52.528;13.340;2022-07-29T02:03:24;16.70;99.90
16578;DHT22;8401;52.528;13.340;2022-07-29T02:05:52;16.80;99.90
16578;DHT22;8401;52.528;13.340;2022-07-29T02:08:19;16.80;99.90
16578;DHT22;8401;52.528;13.340;2022-07-29T02:10:47;17.00;99.90
16578;DHT22;8401;52.528;13.340;2022-07-29T02:13:15;16.90;99.90
16578;DHT22;8401;52.528;13.340;2022-07-29T02:15:43;17.00;99.90
16578;DHT22;8401;52.528;13.340;2022-07-29T02:18:13;17.00;99.90
16578;DHT22;8401;52.528;13.340;2022-07-29T02:20:40;17.00;99.90
16578;DHT22;8401;52.528;13.340;2022-07-29T02:23:07;16.90;99.90
16578;DHT22;8401;52.528;13.340;2022-07-29T02:25:36;17.00;99.90
16578;DHT22;8401;52.528;13.340;2022-07-29T02:28:03;16.90;99.90
16578;DHT22;8401;52.528;13.340;2022-07-29T02:30:30;16.90;99.90
16578;DHT22;8401;52.528;13.340;2022-07-29T02:32:57;16.70;99.90
16578;DHT22;8401;52.528;13.340;2022-07-29T02:35:24;16.70;99.90
16578;DHT22;8401;52.528;13.340;2022-07-29T02:37:51;16.70;99.90
16578;DHT22;8401;52.528;13.340;2022-07-29T02:40:38;16.60;99.90
16578;DHT22;8401;52.528;13.340;2022-07-29T02:43:06;16.70;99.90
16578;DHT22;8401;52.528;13.340;2022-07-29T02:45:33;16.70;99.90
16578;DHT22;8401;52.528;13.340;2022-07-29T02:48:00;16.60;99.90
16578;DHT22;8401;52.528;13.340;2022-07-29T02:50:34;16.60;99.90
16578;DHT22;8401;52.528;13.340;2022-07-29T02:53:31;16.50;99.90
16578;DHT22;8401;52.528;13.340;2022-07-29T02:56:01;16.50;99.90
16578;DHT22;8401;52.528;13.340;2022-07-29T02:58:33;16.50;99.90
16578;DHT22;8401;52.528;13.340;2022-07-29T03:01:14;16.50;99.90
16578;DHT22;8401;52.528;13.340;2022-07-29T03:03:43;16.50;99.90
16578;DHT22;8401;52.528;13.340;2022-07-29T03:06:10;16.40;99.90
16578;DHT22;8401;52.528;13.340;2022-07-29T03:08:37;16.40;99.90
16578;DHT22;8401;52.528;13.340;2022-07-29T03:11:03;16.40;99.90
16578;DHT22;8401;52.528;13.340;2022-07-29T03:13:30;16.50;99.90
16578;DHT22;8401;52.528;13.340;2022-07-29T03:15:57;16.60;99.90
16578;DHT22;8401;52.528;13.340;2022-07-29T03:18:23;16.50;99.90
16578;DHT22;8401;52.528;13.340;2022-07-29T03:20:49;16.50;99.90
16578;DHT22;8401;52.528;13.340;2022-07-29T03:23:19;16.60;99.90
16578;DHT22;8401;52.528;13.340;2022-07-29T03:25:46;16.50;99.90
16578;DHT22;8401;52.528;13.340;2022-07-29T03:28:12;16.50;99.90
16578;DHT22;8401;52.528;13.340;2022-07-29T03:30:37;16.40;99.90
16578;DHT22;8401;52.528;13.340;2022-07-29T03:33:03;16.60;99.90
16578;DHT22;8401;52.528;13.340;2022-07-29T03:35:28;16.50;99.90
16578;DHT22;8401;52.528;13.340;2022-07-29T03:37:57;16.30;99.90
16578;DHT22;8401;52.528;13.340;2022-07-29T03:40:35;16.40;99.90
16578;DHT22;8401;52.528;13.340;2022-07-29T03:43:03;16.40;99.90
16578;DHT22;8401;52.528;13.340;2022-07-29T03:45:30;16.40;99.90
16578;DHT22;8401;52.528;13.340;2022-07-29T03:48:01;16.50;99.90
16578;DHT22;8401;52.528;13.340;2022-07-29T03:50:28;16.70;99.90
16578;DHT22;8401;52.528;13.340;2022-07-29T03:52:55;16.80;99.90
16578;DHT22;8401;52.528;13.340;2022-07-29T03:55:21;16.70;99.90
16578;DHT22;8401;52.528;13.340;2022-07-29T03:57:48;16.80;99.90
16578;DHT22;8401;52.528;13.340;2022-07-29T04:00:15;16.70;99.90
16578;DHT22;8401;52.528;13.340;2022-07-29T04:02:41;16.80;99.90
16578;DHT22;8401;52.528;13.340;2022-07-29T04:05:12;16.60;99.90
16578;DHT22;8401;52.528;13.340;2022-07-29T04:07:39;16.70;99.90
16578;DHT22;8401;52.528;13.340;2022-07-29T04:10:04;16.80;99.90
16578;DHT22;8401;52.528;13.340;2022-07-29T04:12:30;16.80;99.90
16578;DHT22;8401;52.528;13.340;2022-07-29T04:14:57;16.70;99.90
16578;DHT22;8401;52.528;13.340;2022-07-29T04:17:22;16.80;99.90
16578;DHT22;8401;52.528;13.340;2022-07-29T04:19:48;16.70;99.90
16578;DHT22;8401;52.528;13.340;2022-07-29T04:22:14;16.60;99.90
16578;DHT22;8401;52.528;13.340;2022-07-29T04:24:39;16.70;99.90
16578;DHT22;8401;52.528;13.340;2022-07-29T04:27:05;16.80;99.90
16578;DHT22;8401;52.528;13.340;2022-07-29T04:29:30;16.80;99.90
16578;DHT22;8401;52.528;13.340;2022-07-29T04:31:56;17.00;99.90
16578;DHT22;8401;52.528;13.340;2022-07-29T04:34:21;16.80;99.90
16578;DHT22;8401;52.528;13.340;2022-07-29T04:36:47;16.80;99.90
16578;DHT22;8401;52.528;13.340;2022-07-29T04:39:13;16.80;99.90
16578;DHT22;8401;52.528;13.340;2022-07-29T04:41:38;16.80;99.90
16578;DHT22;8401;52.528;13.340;2022-07-29T04:44:04;16.80;99.90
16578;DHT22;8401;52.528;13.340;2022-07-29T04:46:31;16.70;99.90
16578;DHT22;8401;52.528;13.340;2022-07-29T04:48:56;16.80;99.90
16578;DHT22;8401;52.528;13.340;2022-07-29T04:51:22;16.70;99.90
16578;DHT22;8401;52.528;13.340;2022-07-29T04:53:48;16.80;99.90
16578;DHT22;8401;52.528;13.340;2022-07-29T04:56:14;16.80;99.90
16578;DHT22;8401;52.528;13.340;2022-07-29T04:58:39;16.80;99.90
16578;DHT22;8401;52.528;13.340;2022-07-29T05:01:05;16.90;99.90
16578;DHT22;8401;52.528;13.340;2022-07-29T05:03:33;17.00;99.90
16578;DHT22;8401;52.528;13.340;2022-07-29T05:05:59;17.00;99.90
16578;DHT22;8401;52.528;13.340;2022-07-29T05:08:24;17.10;99.90
16578;DHT22;8401;52.528;13.340;2022-07-29T05:10:50;17.20;99.90
16578;DHT22;8401;52.528;13.340;2022-07-29T05:13:16;17.20;99.90
16578;DHT22;8401;52.528;13.340;2022-07-29T05:15:41;17.30;99.90
16578;DHT22;8401;52.528;13.340;2022-07-29T05:18:07;17.20;99.90
16578;DHT22;8401;52.528;13.340;2022-07-29T05:20:33;17.30;99.90
16578;DHT22;8401;52.528;13.340;2022-07-29T05:23:00;17.40;99.90
16578;DHT22;8401;52.528;13.340;2022-07-29T05:25:27;17.50;99.90
16578;DHT22;8401;52.528;13.340;2022-07-29T05:27:53;17.50;99.90
16578;DHT22;8401;52.528;13.340;2022-07-29T05:30:19;17.70;99.90
16578;DHT22;8401;52.528;13.340;2022-07-29T05:32:45;17.80;99.90
16578;DHT22;8401;52.528;13.340;2022-07-29T05:35:11;17.80;99.90
16578;DHT22;8401;52.528;13.340;2022-07-29T05:37:37;17.70;99.90
16578;DHT22;8401;52.528;13.340;2022-07-29T05:40:03;17.60;99.90
16578;DHT22;8401;52.528;13.340;2022-07-29T05:42:29;17.60;99.90
16578;DHT22;8401;52.528;13.340;2022-07-29T05:44:55;17.60;99.90
16578;DHT22;8401;52.528;13.340;2022-07-29T05:47:21;17.80;99.90
16578;DHT22;8401;52.528;13.340;2022-07-29T05:49:47;17.80;99.90
16578;DHT22;8401;52.528;13.340;2022-07-29T05:52:14;17.80;99.90
16578;DHT22;8401;52.528;13.340;2022-07-29T05:54:40;17.70;99.90
16578;DHT22;8401;52.528;13.340;2022-07-29T05:57:05;18.10;99.90
16578;DHT22;8401;52.528;13.340;2022-07-29T05:59:40;18.30;99.90
16578;DHT22;8401;52.528;13.340;2022-07-29T06:02:06;18.20;99.90
16578;DHT22;8401;52.528;13.340;2022-07-29T06:04:32;18.30;99.90
16578;DHT22;8401;52.528;13.340;2022-07-29T06:06:58;18.30;99.90
16578;DHT22;8401;52.528;13.340;2022-07-29T06:09:24;18.60;99.90
16578;DHT22;8401;52.528;13.340;2022-07-29T06:11:49;18.60;99.90
16578;DHT22;8401;52.528;13.340;2022-07-29T06:14:15;18.60;99.90
16578;DHT22;8401;52.528;13.340;2022-07-29T06:16:41;19.10;99.90
16578;DHT22;8401;52.528;13.340;2022-07-29T06:19:06;19.10;99.90
16578;DHT22;8401;52.528;13.340;2022-07-29T06:21:32;19.40;99.90
16578;DHT22;8401;52.528;13.340;2022-07-29T06:23:59;19.70;99.90
16578;DHT22;8401;52.528;13.340;2022-07-29T06:26:24;19.50;99.90
16578;DHT22;8401;52.528;13.340;2022-07-29T06:28:50;19.80;99.90
16578;DHT22;8401;52.528;13.340;2022-07-29T06:31:15;19.70;99.90
16578;DHT22;8401;52.528;13.340;2022-07-29T06:33:41;19.80;99.90
16578;DHT22;8401;52.528;13.340;2022-07-29T06:36:07;19.50;99.90
16578;DHT22;8401;52.528;13.340;2022-07-29T06:38:33;19.80;99.90
16578;DHT22;8401;52.528;13.340;2022-07-29T06:40:59;19.80;99.90
16578;DHT22;8401;52.528;13.340;2022-07-29T06:43:39;19.50;99.90
16578;DHT22;8401;52.528;13.340;2022-07-29T06:46:16;19.30;99.90
16578;DHT22;8401;52.528;13.340;2022-07-29T06:48:45;19.60;99.90
16578;DHT22;8401;52.528;13.340;2022-07-29T06:51:11;20.00;99.90
16578;DHT22;8401;52.528;13.340;2022-07-29T06:53:38;19.80;99.90
16578;DHT22;8401;52.528;13.340;2022-07-29T06:56:05;19.80;99.90
16578;DHT22;8401;52.528;13.340;2022-07-29T06:58:31;20.20;99.90
16578;DHT22;8401;52.528;13.340;2022-07-29T07:01:03;20.00;99.90
16578;DHT22;8401;52.528;13.340;2022-07-29T07:03:29;20.30;99.90
16578;DHT22;8401;52.528;13.340;2022-07-29T07:05:55;20.50;99.90
16578;DHT22;8401;52.528;13.340;2022-07-29T07:08:21;20.60;99.90
16578;DHT22;8401;52.528;13.340;2022-07-29T07:10:47;20.50;99.90
16578;DHT22;8401;52.528;13.340;2022-07-29T07:13:13;20.90;99.90
16578;DHT22;8401;52.528;13.340;2022-07-29T07:15:40;21.30;99.90
16578;DHT22;8401;52.528;13.340;2022-07-29T07:18:06;21.30;99.90
16578;DHT22;8401;52.528;13.340;2022-07-29T07:20:33;21.80;99.90
16578;DHT22;8401;52.528;13.340;2022-07-29T07:22:59;22.00;99.90
16578;DHT22;8401;52.528;13.340;2022-07-29T07:25:24;22.00;99.90
16578;DHT22;8401;52.528;13.340;2022-07-29T07:27:50;22.00;99.90
16578;DHT22;8401;52.528;13.340;2022-07-29T07:30:16;22.00;99.90
16578;DHT22;8401;52.528;13.340;2022-07-29T07:32:42;22.20;99.90
16578;DHT22;8401;52.528;13.340;2022-07-29T07:35:09;22.30;99.90
16578;DHT22;8401;52.528;13.340;2022-07-29T07:37:35;22.70;99.90
16578;DHT22;8401;52.528;13.340;2022-07-29T07:40:01;23.20;99.90
16578;DHT22;8401;52.528;13.340;2022-07-29T07:42:27;23.10;99.90
16578;DHT22;8401;52.528;13.340;2022-07-29T07:44:52;23.20;99.90
16578;DHT22;8401;52.528;13.340;2022-07-29T07:47:19;23.30;99.90
16578;DHT22;8401;52.528;13.340;2022-07-29T07:49:49;24.10;99.90
16578;DHT22;8401;52.528;13.340;2022-07-29T07:52:20;24.20;99.90
16578;DHT22;8401;52.528;13.340;2022-07-29T07:54:46;24.20;99.90
16578;DHT22;8401;52.528;13.340;2022-07-29T07:57:12;24.70;99.90
16578;DHT22;8401;52.528;13.340;2022-07-29T07:59:39;24.90;99.90
16578;DHT22;8401;52.528;13.340;2022-07-29T08:02:05;24.60;99.90
16578;DHT22;8401;52.528;13.340;2022-07-29T08:04:31;24.90;99.90
16578;DHT22;8401;52.528;13.340;2022-07-29T08:06:58;26.00;99.90
16578;DHT22;8401;52.528;13.340;2022-07-29T08:09:25;26.40;99.90
16578;DHT22;8401;52.528;13.340;2022-07-29T08:11:52;27.10;99.90
16578;DHT22;8401;52.528;13.340;2022-07-29T08:14:18;27.50;99.90
16578;DHT22;8401;52.528;13.340;2022-07-29T08:16:44;27.20;99.90
16578;DHT22;8401;52.528;13.340;2022-07-29T08:19:09;27.70;99.90
16578;DHT22;8401;52.528;13.340;2022-07-29T08:21:35;28.40;99.90
16578;DHT22;8401;52.528;13.340;2022-07-29T08:24:01;29.00;99.70
16578;DHT22;8401;52.528;13.340;2022-07-29T08:26:47;28.90;97.90
16578;DHT22;8401;52.528;13.340;2022-07-29T08:29:13;28.40;97.50
16578;DHT22;8401;52.528;13.340;2022-07-29T08:31:40;28.90;96.50
16578;DHT22;8401;52.528;13.340;2022-07-29T08:34:06;29.40;94.10
16578;DHT22;8401;52.528;13.340;2022-07-29T08:36:32;29.40;93.30
16578;DHT22;8401;52.528;13.340;2022-07-29T08:38:59;29.00;93.10
16578;DHT22;8401;52.528;13.340;2022-07-29T08:41:26;28.80;92.60
16578;DHT22;8401;52.528;13.340;2022-07-29T08:43:52;28.70;92.30
16578;DHT22;8401;52.528;13.340;2022-07-29T08:46:18;28.70;92.20
16578;DHT22;8401;52.528;13.340;2022-07-29T08:48:44;28.80;92.00
16578;DHT22;8401;52.528;13.340;2022-07-29T08:51:15;29.40;91.30
16578;DHT22;8401;52.528;13.340;2022-07-29T08:53:45;29.80;90.10
16578;DHT22;8401;52.528;13.340;2022-07-29T08:56:14;30.60;86.70
16578;DHT22;8401;52.528;13.340;2022-07-29T08:58:41;30.40;87.10
16578;DHT22;8401;52.528;13.340;2022-07-29T09:01:07;30.10;86.00
16578;DHT22;8401;52.528;13.340;2022-07-29T09:03:36;30.00;85.30
16578;DHT22;8401;52.528;13.340;2022-07-29T09:06:03;29.90;84.30
16578;DHT22;8401;52.528;13.340;2022-07-29T09:08:30;29.90;84.10
16578;DHT22;8401;52.528;13.340;2022-07-29T09:10:56;28.70;85.40
16578;DHT22;8401;52.528;13.340;2022-07-29T09:13:22;28.30;87.60
16578;DHT22;8401;52.528;13.340;2022-07-29T09:15:48;28.90;85.70
16578;DHT22;8401;52.528;13.340;2022-07-29T09:18:46;29.20;84.50
16578;DHT22;8401;52.528;13.340;2022-07-29T09:21:13;29.50;83.70
16578;DHT22;8401;52.528;13.340;2022-07-29T09:24:09;30.10;83.00
16578;DHT22;8401;52.528;13.340;2022-07-29T09:26:45;31.00;81.10
16578;DHT22;8401;52.528;13.340;2022-07-29T09:29:16;31.20;77.40
16578;DHT22;8401;52.528;13.340;2022-07-29T09:31:44;29.90;79.00
16578;DHT22;8401;52.528;13.340;2022-07-29T09:34:11;29.40;80.60
16578;DHT22;8401;52.528;13.340;2022-07-29T09:36:48;29.30;81.00
16578;DHT22;8401;52.528;13.340;2022-07-29T09:39:15;29.40;79.70
16578;DHT22;8401;52.528;13.340;2022-07-29T09:41:52;28.90;79.30
16578;DHT22;8401;52.528;13.340;2022-07-29T09:44:21;28.00;81.00
16578;DHT22;8401;52.528;13.340;2022-07-29T09:47:02;27.70;82.10
16578;DHT22;8401;52.528;13.340;2022-07-29T09:49:32;27.60;81.50
16578;DHT22;8401;52.528;13.340;2022-07-29T09:52:08;27.50;82.00
16578;DHT22;8401;52.528;13.340;2022-07-29T09:54:35;27.50;82.00
16578;DHT22;8401;52.528;13.340;2022-07-29T09:57:06;27.50;83.20
16578;DHT22;8401;52.528;13.340;2022-07-29T09:59:32;27.70;82.20
16578;DHT22;8401;52.528;13.340;2022-07-29T10:01:57;28.50;80.50
16578;DHT22;8401;52.528;13.340;2022-07-29T10:04:23;28.90;78.80
16578;DHT22;8401;52.528;13.340;2022-07-29T10:06:59;29.10;77.60
16578;DHT22;8401;52.528;13.340;2022-07-29T10:09:25;28.60;77.80
16578;DHT22;8401;52.528;13.340;2022-07-29T10:12:12;28.60;78.30
16578;DHT22;8401;52.528;13.340;2022-07-29T10:14:42;28.60;78.80
16578;DHT22;8401;52.528;13.340;2022-07-29T10:17:09;29.20;77.60
16578;DHT22;8401;52.528;13.340;2022-07-29T10:19:36;30.10;75.00
16578;DHT22;8401;52.528;13.340;2022-07-29T10:22:07;30.80;73.90
16578;DHT22;8401;52.528;13.340;2022-07-29T10:24:37;30.80;72.60
16578;DHT22;8401;52.528;13.340;2022-07-29T10:27:05;29.60;72.40
16578;DHT22;8401;52.528;13.340;2022-07-29T10:29:31;29.30;73.20
16578;DHT22;8401;52.528;13.340;2022-07-29T10:34:25;28.50;73.20
16578;DHT22;8401;52.528;13.340;2022-07-29T10:37:07;28.30;73.60
16578;DHT22;8401;52.528;13.340;2022-07-29T10:42:22;28.00;75.40
16578;DHT22;8401;52.528;13.340;2022-07-29T10:44:50;29.10;75.00
16578;DHT22;8401;52.528;13.340;2022-07-29T10:50:00;30.10;70.30
16578;DHT22;8401;52.528;13.340;2022-07-29T10:52:52;29.30;71.40
16578;DHT22;8401;52.528;13.340;2022-07-29T10:55:34;28.60;72.80
16578;DHT22;8401;52.528;13.340;2022-07-29T10:58:20;28.80;72.90
16578;DHT22;8401;52.528;13.340;2022-07-29T11:00:49;28.40;72.60
16578;DHT22;8401;52.528;13.340;2022-07-29T11:03:47;28.40;73.30
16578;DHT22;8401;52.528;13.340;2022-07-29T11:06:14;28.60;73.10
16578;DHT22;8401;52.528;13.340;2022-07-29T11:08:40;29.20;72.50
16578;DHT22;8401;52.528;13.340;2022-07-29T11:13:44;29.30;72.60
16578;DHT22;8401;52.528;13.340;2022-07-29T11:16:15;29.00;71.50
16578;DHT22;8401;52.528;13.340;2022-07-29T11:21:40;30.10;71.50
16578;DHT22;8401;52.528;13.340;2022-07-29T11:24:18;31.40;70.80
16578;DHT22;8401;52.528;13.340;2022-07-29T11:26:44;33.30;65.80
16578;DHT22;8401;52.528;13.340;2022-07-29T11:29:19;34.50;63.80
16578;DHT22;8401;52.528;13.340;2022-07-29T11:31:49;35.10;61.40
16578;DHT22;8401;52.528;13.340;2022-07-29T11:34:27;34.70;61.00
16578;DHT22;8401;52.528;13.340;2022-07-29T11:39:37;34.90;59.40
16578;DHT22;8401;52.528;13.340;2022-07-29T11:47:30;37.30;56.20
16578;DHT22;8401;52.528;13.340;2022-07-29T11:49:57;38.20;54.40
16578;DHT22;8401;52.528;13.340;2022-07-29T11:52:23;36.50;55.10
16578;DHT22;8401;52.528;13.340;2022-07-29T11:54:58;35.50;56.20
16578;DHT22;8401;52.528;13.340;2022-07-29T11:57:28;35.20;56.50
16578;DHT22;8401;52.528;13.340;2022-07-29T11:59:55;35.20;56.40
16578;DHT22;8401;52.528;13.340;2022-07-29T12:02:23;35.30;56.60
16578;DHT22;8401;52.528;13.340;2022-07-29T12:04:53;34.50;56.80
16578;DHT22;8401;52.528;13.340;2022-07-29T12:07:27;34.30;57.90
16578;DHT22;8401;52.528;13.340;2022-07-29T12:09:53;34.40;57.80
16578;DHT22;8401;52.528;13.340;2022-07-29T12:12:20;33.50;58.50
16578;DHT22;8401;52.528;13.340;2022-07-29T12:14:46;32.40;60.40
16578;DHT22;8401;52.528;13.340;2022-07-29T12:17:28;31.10;62.80
16578;DHT22;8401;52.528;13.340;2022-07-29T12:19:55;30.40;64.30
16578;DHT22;8401;52.528;13.340;2022-07-29T12:22:37;30.10;65.10
16578;DHT22;8401;52.528;13.340;2022-07-29T12:25:12;29.80;66.40
16578;DHT22;8401;52.528;13.340;2022-07-29T12:27:40;29.60;67.70
16578;DHT22;8401;52.528;13.340;2022-07-29T12:30:13;29.70;68.70
16578;DHT22;8401;52.528;13.340;2022-07-29T12:32:46;29.90;68.60
16578;DHT22;8401;52.528;13.340;2022-07-29T12:35:13;29.80;68.80
16578;DHT22;8401;52.528;13.340;2022-07-29T12:37:42;29.70;70.00
16578;DHT22;8401;52.528;13.340;2022-07-29T12:40:10;29.80;68.90
16578;DHT22;8401;52.528;13.340;2022-07-29T12:42:36;30.00;69.00
16578;DHT22;8401;52.528;13.340;2022-07-29T12:45:04;30.00;69.20
16578;DHT22;8401;52.528;13.340;2022-07-29T12:47:30;29.90;69.80
16578;DHT22;8401;52.528;13.340;2022-07-29T12:50:10;29.90;69.60
16578;DHT22;8401;52.528;13.340;2022-07-29T12:52:36;29.60;70.30
16578;DHT22;8401;52.528;13.340;2022-07-29T12:55:03;29.50;70.90
16578;DHT22;8401;52.528;13.340;2022-07-29T12:57:29;29.20;70.60
16578;DHT22;8401;52.528;13.340;2022-07-29T13:02:29;29.40;70.50
16578;DHT22;8401;52.528;13.340;2022-07-29T13:04:56;29.60;70.40
16578;DHT22;8401;52.528;13.340;2022-07-29T13:07:27;29.50;70.50
16578;DHT22;8401;52.528;13.340;2022-07-29T13:10:09;29.50;70.70
16578;DHT22;8401;52.528;13.340;2022-07-29T13:12:35;29.20;72.00
16578;DHT22;8401;52.528;13.340;2022-07-29T13:15:01;29.30;72.10
16578;DHT22;8401;52.528;13.340;2022-07-29T13:17:41;29.00;71.90
16578;DHT22;8401;52.528;13.340;2022-07-29T13:20:09;28.90;72.70
16578;DHT22;8401;52.528;13.340;2022-07-29T13:22:38;29.30;71.90
16578;DHT22;8401;52.528;13.340;2022-07-29T13:25:04;29.40;71.90
16578;DHT22;8401;52.528;13.340;2022-07-29T13:27:33;29.60;71.90
16578;DHT22;8401;52.528;13.340;2022-07-29T13:30:00;29.60;72.00
16578;DHT22;8401;52.528;13.340;2022-07-29T13:32:28;29.50;71.60
16578;DHT22;8401;52.528;13.340;2022-07-29T13:34:57;29.40;71.80
16578;DHT22;8401;52.528;13.340;2022-07-29T13:37:24;29.30;72.40
16578;DHT22;8401;52.528;13.340;2022-07-29T13:39:51;29.30;72.40
16578;DHT22;8401;52.528;13.340;2022-07-29T13:42:17;29.10;72.10
16578;DHT22;8401;52.528;13.340;2022-07-29T13:44:43;29.10;72.80
16578;DHT22;8401;52.528;13.340;2022-07-29T13:47:09;29.00;73.80
16578;DHT22;8401;52.528;13.340;2022-07-29T13:49:35;29.10;74.20
16578;DHT22;8401;52.528;13.340;2022-07-29T13:52:01;29.00;74.30
16578;DHT22;8401;52.528;13.340;2022-07-29T13:54:27;29.10;74.80
16578;DHT22;8401;52.528;13.340;2022-07-29T13:56:52;29.20;74.80
16578;DHT22;8401;52.528;13.340;2022-07-29T13:59:18;29.40;73.40
16578;DHT22;8401;52.528;13.340;2022-07-29T14:01:44;29.60;74.00
16578;DHT22;8401;52.528;13.340;2022-07-29T14:04:10;29.70;73.10
16578;DHT22;8401;52.528;13.340;2022-07-29T14:06:36;30.00;74.30
16578;DHT22;8401;52.528;13.340;2022-07-29T14:09:03;30.00;73.60
16578;DHT22;8401;52.528;13.340;2022-07-29T14:11:32;29.90;72.90
16578;DHT22;8401;52.528;13.340;2022-07-29T14:13:58;29.50;73.70
16578;DHT22;8401;52.528;13.340;2022-07-29T14:16:24;29.20;73.50
16578;DHT22;8401;52.528;13.340;2022-07-29T14:18:50;29.10;73.60
16578;DHT22;8401;52.528;13.340;2022-07-29T14:21:16;29.00;73.30
16578;DHT22;8401;52.528;13.340;2022-07-29T14:23:42;29.20;73.80
16578;DHT22;8401;52.528;13.340;2022-07-29T14:26:07;29.00;74.80
16578;DHT22;8401;52.528;13.340;2022-07-29T14:28:33;29.40;74.50
16578;DHT22;8401;52.528;13.340;2022-07-29T14:30:59;29.50;74.30
16578;DHT22;8401;52.528;13.340;2022-07-29T14:33:24;29.80;73.30
16578;DHT22;8401;52.528;13.340;2022-07-29T14:35:50;29.60;72.20
16578;DHT22;8401;52.528;13.340;2022-07-29T14:38:15;29.30;71.80
16578;DHT22;8401;52.528;13.340;2022-07-29T14:40:41;29.30;72.80
16578;DHT22;8401;52.528;13.340;2022-07-29T14:43:06;29.50;73.20
16578;DHT22;8401;52.528;13.340;2022-07-29T14:45:32;29.80;73.60
16578;DHT22;8401;52.528;13.340;2022-07-29T14:47:58;30.00;73.70
16578;DHT22;8401;52.528;13.340;2022-07-29T14:50:25;30.10;73.50
16578;DHT22;8401;52.528;13.340;2022-07-29T14:52:51;29.90;73.80
16578;DHT22;8401;52.528;13.340;2022-07-29T14:55:17;30.00;74.10
16578;DHT22;8401;52.528;13.340;2022-07-29T14:57:42;29.90;73.60
16578;DHT22;8401;52.528;13.340;2022-07-29T15:00:09;29.70;74.10
16578;DHT22;8401;52.528;13.340;2022-07-29T15:02:36;29.60;74.70
16578;DHT22;8401;52.528;13.340;2022-07-29T15:05:02;29.40;75.20
16578;DHT22;8401;52.528;13.340;2022-07-29T15:07:27;29.10;75.50
16578;DHT22;8401;52.528;13.340;2022-07-29T15:09:53;28.90;75.90
16578;DHT22;8401;52.528;13.340;2022-07-29T15:12:19;28.90;76.50
16578;DHT22;8401;52.528;13.340;2022-07-29T15:14:44;29.00;76.00
16578;DHT22;8401;52.528;13.340;2022-07-29T15:17:10;29.20;75.60
16578;DHT22;8401;52.528;13.340;2022-07-29T15:19:36;29.40;75.40
16578;DHT22;8401;52.528;13.340;2022-07-29T15:22:01;29.50;74.50
16578;DHT22;8401;52.528;13.340;2022-07-29T15:24:27;29.40;74.40
16578;DHT22;8401;52.528;13.340;2022-07-29T15:26:53;29.30;74.10
16578;DHT22;8401;52.528;13.340;2022-07-29T15:29:19;29.10;74.80
16578;DHT22;8401;52.528;13.340;2022-07-29T15:31:45;29.10;74.00
16578;DHT22;8401;52.528;13.340;2022-07-29T15:34:10;28.80;74.20
16578;DHT22;8401;52.528;13.340;2022-07-29T15:36:36;28.80;74.00
16578;DHT22;8401;52.528;13.340;2022-07-29T15:39:01;28.80;74.40
16578;DHT22;8401;52.528;13.340;2022-07-29T15:41:27;28.90;74.30
16578;DHT22;8401;52.528;13.340;2022-07-29T15:43:53;29.10;73.80
16578;DHT22;8401;52.528;13.340;2022-07-29T15:46:19;29.10;73.90
16578;DHT22;8401;52.528;13.340;2022-07-29T15:49:05;29.10;73.70
16578;DHT22;8401;52.528;13.340;2022-07-29T15:51:31;29.00;73.80
16578;DHT22;8401;52.528;13.340;2022-07-29T15:53:57;29.00;73.90
16578;DHT22;8401;52.528;13.340;2022-07-29T15:56:23;28.80;74.10
16578;DHT22;8401;52.528;13.340;2022-07-29T15:58:52;28.70;74.60
16578;DHT22;8401;52.528;13.340;2022-07-29T16:01:17;28.50;75.30
16578;DHT22;8401;52.528;13.340;2022-07-29T16:03:43;28.30;76.10
16578;DHT22;8401;52.528;13.340;2022-07-29T16:06:09;28.00;76.40
16578;DHT22;8401;52.528;13.340;2022-07-29T16:08:34;27.80;76.90
16578;DHT22;8401;52.528;13.340;2022-07-29T16:11:00;27.70;77.50